createdAt,value
2023-04-03T00:00:55.421Z,68.70
2023-04-03T00:03:25.528Z,68.87
2023-04-03T00:05:52.435Z,68.90
2023-04-03T00:08:19.860Z,68.79
2023-04-03T00:10:46.718Z,69.01
2023-04-03T00:13:15.811Z,69.05
2023-04-03T00:15:42.986Z,68.93
2023-04-03T00:18:10.469Z,69.15
2023-04-03T00:20:39.263Z,69.15
2023-04-03T00:23:06.296Z,69.18
2023-04-03T00:25:36.821Z,69.09
2023-04-03T00:28:07.594Z,69.17
2023-04-03T00:30:36.553Z,69.11
2023-04-03T00:33:03.932Z,69.23
2023-04-03T00:35:31.865Z,69.24
2023-04-03T00:37:59.098Z,69.32
2023-04-03T00:40:28.472Z,69.41
2023-04-03T00:42:58.893Z,69.36
2023-04-03T00:45:34.144Z,69.40
2023-04-03T00:48:06.729Z,69.56
2023-04-03T00:50:36.934Z,69.80
2023-04-03T00:53:06.253Z,69.74
2023-04-03T00:55:36.881Z,69.44
2023-04-03T00:58:04.601Z,69.52
2023-04-03T01:00:31.896Z,69.79
2023-04-03T01:02:59.008Z,69.74
2023-04-03T01:05:27.471Z,69.56
2023-04-03T01:07:54.888Z,69.78
2023-04-03T01:10:22.077Z,69.79
2023-04-03T01:12:51.741Z,69.83
2023-04-03T01:15:21.057Z,70.11
2023-04-03T01:17:50.082Z,69.87
2023-04-03T01:21:04.029Z,69.86
2023-04-03T01:23:46.971Z,70.00
2023-04-03T01:26:21.062Z,70.13
2023-04-03T01:28:49.055Z,70.12
2023-04-03T01:31:23.892Z,70.01
2023-04-03T01:33:52.639Z,70.21
2023-04-03T01:36:22.031Z,70.13
2023-04-03T01:38:49.372Z,70.21
2023-04-03T01:41:17.072Z,70.45
2023-04-03T01:43:43.938Z,70.37
2023-04-03T01:46:11.101Z,70.05
2023-04-03T01:48:38.293Z,70.40
2023-04-03T01:51:07.014Z,70.42
2023-04-03T01:53:33.819Z,70.63
2023-04-03T01:56:01.193Z,70.51
2023-04-03T01:58:28.854Z,70.73
2023-04-03T02:00:55.773Z,70.70
2023-04-03T02:03:41.384Z,70.93
2023-04-03T02:06:09.978Z,70.68
2023-04-03T02:08:37.786Z,71.05
2023-04-03T02:11:04.820Z,70.68
2023-04-03T02:13:31.622Z,71.19
2023-04-03T02:16:00.350Z,71.11
2023-04-03T02:18:27.159Z,71.05
2023-04-03T02:20:54.379Z,71.12
2023-04-03T02:23:22.553Z,71.15
2023-04-03T02:25:52.116Z,71.26
2023-04-03T02:28:19.251Z,71.29
2023-04-03T02:30:47.290Z,71.30
2023-04-03T02:33:14.021Z,71.21
2023-04-03T02:35:41.067Z,71.56
2023-04-03T02:38:07.795Z,71.55
2023-04-03T02:40:36.150Z,71.37
2023-04-03T02:43:03.125Z,71.41
2023-04-03T02:45:30.128Z,71.43
2023-04-03T02:47:56.850Z,71.62
2023-04-03T02:50:23.695Z,71.71
2023-04-03T02:52:50.460Z,71.39
2023-04-03T02:55:17.682Z,71.58
2023-04-03T02:57:45.796Z,71.78
2023-04-03T03:00:15.603Z,71.75
2023-04-03T03:02:42.463Z,71.80
2023-04-03T03:05:09.835Z,71.83
2023-04-03T03:07:45.381Z,71.63
2023-04-03T03:10:12.370Z,71.73
2023-04-03T03:12:39.996Z,72.00
2023-04-03T03:15:09.598Z,72.10
2023-04-03T03:17:37.258Z,71.96
2023-04-03T03:20:04.696Z,71.87
2023-04-03T03:22:32.892Z,71.78
2023-04-03T03:24:59.725Z,72.08
2023-04-03T03:27:27.063Z,72.17
2023-04-03T03:30:31.293Z,72.12
2023-04-03T03:32:59.956Z,71.89
2023-04-03T03:35:26.910Z,72.13
2023-04-03T03:37:53.912Z,72.17
2023-04-03T03:40:21.253Z,72.20
2023-04-03T03:42:48.300Z,71.97
2023-04-03T03:45:15.977Z,72.03
2023-04-03T03:47:42.763Z,72.22
2023-04-03T03:50:13.179Z,72.38
2023-04-03T03:52:40.103Z,71.97
2023-04-03T03:55:09.533Z,72.36
2023-04-03T03:57:36.442Z,72.22
2023-04-03T04:00:04.383Z,72.49
2023-04-03T04:02:31.878Z,72.45
2023-04-03T04:04:59.002Z,72.32
2023-04-03T04:07:30.362Z,72.41
2023-04-03T04:09:57.304Z,72.59
2023-04-03T04:12:24.239Z,72.73
2023-04-03T04:14:51.033Z,72.60
2023-04-03T04:17:17.824Z,72.47
2023-04-03T04:19:45.749Z,72.83
2023-04-03T04:22:15.292Z,72.79
2023-04-03T04:24:43.956Z,72.75
2023-04-03T04:27:11.006Z,72.61
2023-04-03T04:29:38.471Z,72.65
2023-04-03T04:32:06.687Z,72.69
2023-04-03T04:34:33.759Z,72.69
2023-04-03T04:37:01.244Z,72.52
2023-04-03T04:39:28.256Z,72.77
2023-04-03T04:41:56.371Z,72.88
2023-04-03T04:44:23.322Z,72.74
2023-04-03T04:46:50.197Z,72.72
2023-04-03T04:49:17.112Z,72.60
2023-04-03T04:51:51.502Z,72.92
2023-04-03T04:54:22.390Z,72.76
2023-04-03T04:56:49.205Z,73.06
2023-04-03T04:59:18.485Z,73.19
2023-04-03T05:01:47.666Z,72.97
2023-04-03T05:04:14.609Z,72.95
2023-04-03T05:06:41.614Z,72.91
2023-04-03T05:09:08.478Z,72.79
2023-04-03T05:11:35.351Z,73.25
2023-04-03T05:14:06.458Z,73.16
2023-04-03T05:16:35.210Z,72.97
2023-04-03T05:19:02.102Z,73.39
2023-04-03T05:21:33.118Z,73.06
2023-04-03T05:24:03.624Z,73.19
2023-04-03T05:26:33.774Z,73.20
2023-04-03T05:29:00.558Z,73.10
2023-04-03T05:31:37.812Z,73.15
2023-04-03T05:34:12.293Z,73.12
2023-04-03T05:36:39.175Z,73.13
2023-04-03T05:39:06.192Z,73.34
2023-04-03T05:41:33.269Z,73.19
2023-04-03T05:44:00.592Z,73.18
2023-04-03T05:46:28.504Z,73.32
2023-04-03T05:48:55.760Z,73.29
2023-04-03T05:51:31.689Z,73.05
2023-04-03T05:54:04.150Z,72.74
2023-04-03T05:56:30.997Z,73.10
2023-04-03T05:58:58.105Z,73.04
2023-04-03T06:01:25.220Z,73.07
2023-04-03T06:03:52.051Z,73.20
2023-04-03T06:06:19.043Z,73.20
2023-04-03T06:08:47.340Z,73.01
2023-04-03T06:11:18.823Z,72.88
2023-04-03T06:13:46.301Z,72.97
2023-04-03T06:16:16.454Z,73.06
2023-04-03T06:18:43.483Z,73.09
2023-04-03T06:21:10.917Z,73.15
2023-04-03T06:23:38.162Z,72.95
2023-04-03T06:26:06.610Z,73.04
2023-04-03T06:28:33.512Z,73.07
2023-04-03T06:31:02.431Z,72.76
2023-04-03T06:33:29.252Z,73.00
2023-04-03T06:35:59.669Z,73.07
2023-04-03T06:38:27.096Z,72.81
2023-04-03T06:40:54.154Z,73.00
2023-04-03T06:43:24.028Z,72.75
2023-04-03T06:45:51.625Z,72.78
2023-04-03T06:48:18.790Z,72.82
2023-04-03T06:50:45.893Z,72.99
2023-04-03T06:53:13.270Z,72.99
2023-04-03T06:55:42.413Z,72.71
2023-04-03T06:58:12.013Z,73.00
2023-04-03T07:00:40.604Z,72.85
2023-04-03T07:03:07.690Z,73.10
2023-04-03T07:05:34.537Z,73.02
2023-04-03T07:08:02.739Z,72.79
2023-04-03T07:10:29.544Z,72.84
2023-04-03T07:12:56.338Z,72.59
2023-04-03T07:15:23.162Z,72.68
2023-04-03T07:17:51.573Z,72.50
2023-04-03T07:20:18.884Z,72.47
2023-04-03T07:22:46.038Z,72.74
2023-04-03T07:25:14.340Z,72.44
2023-04-03T07:27:41.239Z,72.55
2023-04-03T07:30:10.756Z,72.45
2023-04-03T07:32:39.112Z,72.44
2023-04-03T07:35:07.899Z,72.07
2023-04-03T07:37:34.999Z,72.24
2023-04-03T07:40:04.639Z,72.32
2023-04-03T07:42:31.514Z,72.25
2023-04-03T07:44:58.306Z,72.11
2023-04-03T07:47:25.330Z,71.97
2023-04-03T07:49:52.541Z,72.06
2023-04-03T07:52:21.129Z,72.28
2023-04-03T07:54:48.647Z,72.01
2023-04-03T07:57:15.824Z,71.26
2023-04-03T07:59:43.773Z,71.36
2023-04-03T08:02:11.014Z,71.60
2023-04-03T08:04:38.794Z,71.58
2023-04-03T08:07:06.132Z,71.33
2023-04-03T08:09:38.060Z,71.16
2023-04-03T08:12:05.241Z,71.33
2023-04-03T08:14:32.680Z,71.04
2023-04-03T08:16:59.845Z,70.67
2023-04-03T08:19:27.143Z,70.79
2023-04-03T08:21:56.514Z,70.63
2023-04-03T08:24:23.412Z,70.58
2023-04-03T08:26:51.636Z,70.32
2023-04-03T08:29:22.347Z,68.95
2023-04-03T08:31:50.934Z,69.33
2023-04-03T08:34:18.336Z,69.57
2023-04-03T08:36:45.548Z,68.99
2023-04-03T08:39:14.163Z,69.12
2023-04-03T08:41:44.455Z,68.89
2023-04-03T08:44:26.601Z,68.46
2023-04-03T08:47:04.252Z,68.23
2023-04-03T08:49:34.381Z,68.09
2023-04-03T08:52:07.001Z,67.78
2023-04-03T08:54:36.658Z,67.64
2023-04-03T08:57:06.981Z,67.18
2023-04-03T08:59:40.929Z,66.28
2023-04-03T09:02:24.604Z,65.79
2023-04-03T09:04:52.135Z,65.63
2023-04-03T09:07:33.389Z,64.59
2023-04-03T09:10:04.273Z,64.10
2023-04-03T09:12:35.924Z,64.26
2023-04-03T09:15:20.111Z,63.84
2023-04-03T09:17:59.979Z,62.67
2023-04-03T09:20:35.630Z,62.47
2023-04-03T09:23:24.365Z,62.39
2023-04-03T09:25:54.508Z,60.90
2023-04-03T09:28:21.690Z,60.60
2023-04-03T09:30:50.146Z,60.07
2023-04-03T09:33:26.915Z,59.15
2023-04-03T09:35:54.169Z,59.99
2023-04-03T09:38:26.333Z,60.65
2023-04-03T09:41:06.362Z,59.58
2023-04-03T09:43:35.752Z,59.32
2023-04-03T09:46:26.247Z,59.00
2023-04-03T09:49:08.009Z,57.76
2023-04-03T09:51:40.436Z,58.11
2023-04-03T09:54:45.678Z,58.27
2023-04-03T09:57:14.486Z,56.64
2023-04-03T09:59:47.602Z,56.91
2023-04-03T10:02:36.414Z,56.46
2023-04-03T10:05:09.932Z,56.07
2023-04-03T10:07:40.194Z,56.22
2023-04-03T10:10:24.004Z,56.68
2023-04-03T10:13:20.256Z,55.85
2023-04-03T10:15:57.944Z,55.46
2023-04-03T10:18:46.386Z,54.39
2023-04-03T10:21:27.087Z,53.49
2023-04-03T10:24:07.723Z,54.23
2023-04-03T10:26:46.585Z,54.09
2023-04-03T10:29:27.604Z,54.62
2023-04-03T10:32:06.639Z,53.75
2023-04-03T10:34:42.339Z,54.19
2023-04-03T10:37:20.448Z,54.24
2023-04-03T10:39:58.199Z,54.23
2023-04-03T10:42:36.736Z,53.96
2023-04-03T10:45:19.957Z,53.72
2023-04-03T10:47:57.971Z,53.42
2023-04-03T10:50:39.489Z,53.20
2023-04-03T10:53:18.777Z,52.73
2023-04-03T10:55:55.303Z,53.25
2023-04-03T10:58:30.968Z,53.39
2023-04-03T11:01:04.226Z,52.81
2023-04-03T11:03:42.645Z,53.17
2023-04-03T11:06:15.837Z,52.46
2023-04-03T11:08:47.581Z,51.86
2023-04-03T11:11:19.389Z,51.12
2023-04-03T11:13:55.665Z,51.59
2023-04-03T11:16:28.304Z,50.62
2023-04-03T11:19:00.545Z,50.62
2023-04-03T11:21:33.015Z,50.13
2023-04-03T11:24:00.466Z,49.19
2023-04-03T11:26:31.822Z,48.93
2023-04-03T11:29:02.576Z,48.96
2023-04-03T11:31:52.827Z,48.76
2023-04-03T11:34:35.444Z,49.50
2023-04-03T11:37:13.084Z,49.26
2023-04-03T11:39:49.037Z,49.57
2023-04-03T11:42:27.213Z,49.40
2023-04-03T11:45:26.733Z,49.84
2023-04-03T11:47:56.068Z,49.12
2023-04-03T11:50:49.347Z,49.41
2023-04-03T11:53:35.723Z,50.07
2023-04-03T11:56:34.066Z,49.89
2023-04-03T11:59:28.290Z,50.30
2023-04-03T12:01:56.772Z,50.12
2023-04-03T12:04:26.486Z,49.43
2023-04-03T12:07:01.607Z,49.02
2023-04-03T12:10:03.686Z,49.17
2023-04-03T12:12:37.108Z,48.89
2023-04-03T12:15:44.159Z,48.90
2023-04-03T12:18:52.702Z,47.83
2023-04-03T12:21:22.972Z,47.60
2023-04-03T12:24:06.628Z,48.06
2023-04-03T12:26:51.932Z,49.10
2023-04-03T12:29:24.722Z,48.36
2023-04-03T12:32:07.414Z,48.96
2023-04-03T12:34:54.700Z,48.87
2023-04-03T12:37:39.912Z,49.62
2023-04-03T12:40:19.294Z,49.54
2023-04-03T12:43:07.268Z,49.30
2023-04-03T12:45:43.837Z,49.20
2023-04-03T12:48:16.431Z,48.96
2023-04-03T12:50:46.583Z,48.31
2023-04-03T12:53:19.258Z,48.82
2023-04-03T12:55:46.288Z,48.83
2023-04-03T12:58:23.155Z,47.35
2023-04-03T13:01:04.892Z,48.14
2023-04-03T13:03:32.518Z,48.37
2023-04-03T13:06:03.696Z,48.45
2023-04-03T13:08:31.779Z,48.77
2023-04-03T13:11:02.463Z,48.90
2023-04-03T13:13:34.039Z,48.47
2023-04-03T13:16:10.330Z,48.01
2023-04-03T13:18:38.026Z,47.75
2023-04-03T13:21:08.130Z,47.99
2023-04-03T13:23:38.379Z,47.67
2023-04-03T13:26:07.493Z,48.18
2023-04-03T13:28:37.639Z,47.62
2023-04-03T13:31:11.160Z,47.87
2023-04-03T13:33:39.060Z,46.76
2023-04-03T13:36:09.567Z,47.54
2023-04-03T13:38:37.616Z,47.91
2023-04-03T13:41:07.123Z,48.21
2023-04-03T13:43:37.443Z,48.25
2023-04-03T13:46:23.187Z,48.46
2023-04-03T13:48:52.632Z,48.67
2023-04-03T13:51:24.041Z,47.81
2023-04-03T13:53:55.004Z,47.97
2023-04-03T13:56:31.106Z,47.83
2023-04-03T13:59:23.484Z,48.11
2023-04-03T14:01:55.535Z,47.09
2023-04-03T14:04:24.653Z,46.71
2023-04-03T14:06:52.564Z,47.35
2023-04-03T14:09:20.915Z,47.07
2023-04-03T14:11:50.025Z,47.02
2023-04-03T14:14:22.015Z,46.22
2023-04-03T14:16:53.614Z,46.87
2023-04-03T14:19:24.064Z,46.69
2023-04-03T14:21:51.960Z,47.34
2023-04-03T14:24:20.107Z,46.97
2023-04-03T14:26:47.792Z,47.21
2023-04-03T14:29:16.062Z,47.88
2023-04-03T14:31:47.639Z,47.79
2023-04-03T14:34:15.082Z,47.93
2023-04-03T14:36:44.991Z,47.88
2023-04-03T14:39:18.256Z,47.79
2023-04-03T14:41:46.245Z,47.21
2023-04-03T14:44:13.044Z,47.66
2023-04-03T14:46:56.377Z,47.74
2023-04-03T14:49:27.360Z,48.17
2023-04-03T14:51:54.185Z,47.70
2023-04-03T14:54:26.813Z,48.08
2023-04-03T14:56:54.549Z,48.27
2023-04-03T14:59:22.542Z,48.13
2023-04-03T15:01:50.366Z,48.41
2023-04-03T15:04:20.559Z,48.11
2023-04-03T15:06:49.992Z,47.96
2023-04-03T15:09:23.123Z,48.55
2023-04-03T15:11:51.144Z,48.75
2023-04-03T15:14:29.622Z,48.77
2023-04-03T15:17:04.813Z,48.41
2023-04-03T15:19:32.824Z,48.76
2023-04-03T15:22:01.254Z,48.28
2023-04-03T15:24:28.172Z,48.83
2023-04-03T15:26:55.589Z,48.67
2023-04-03T15:29:22.580Z,48.45
2023-04-03T15:31:51.506Z,48.35
2023-04-03T15:34:18.566Z,48.65
2023-04-03T15:36:45.511Z,48.35
2023-04-03T15:39:18.498Z,48.20
2023-04-03T15:41:46.391Z,48.12
2023-04-03T15:44:14.158Z,48.74
2023-04-03T15:46:43.776Z,48.62
2023-04-03T15:49:14.653Z,49.25
2023-04-03T15:51:41.934Z,49.42
2023-04-03T15:54:08.717Z,49.06
2023-04-03T15:56:37.102Z,49.19
2023-04-03T15:59:04.715Z,48.88
2023-04-03T16:01:32.563Z,48.71
2023-04-03T16:03:59.579Z,49.13
2023-04-03T16:06:27.102Z,49.02
2023-04-03T16:08:57.974Z,48.89
2023-04-03T16:11:25.174Z,49.23
2023-04-03T16:13:53.424Z,49.17
2023-04-03T16:16:20.153Z,49.28
2023-04-03T16:18:48.048Z,48.85
2023-04-03T16:21:17.545Z,49.02
2023-04-03T16:23:44.538Z,49.52
2023-04-03T16:26:11.334Z,49.31
2023-04-03T16:28:40.401Z,49.62
2023-04-03T16:31:10.295Z,48.97
2023-04-03T16:33:39.769Z,49.15
2023-04-03T16:36:10.494Z,49.12
2023-04-03T16:38:37.367Z,49.08
2023-04-03T16:41:05.801Z,49.28
2023-04-03T16:43:33.000Z,49.10
2023-04-03T16:46:00.351Z,49.60
2023-04-03T16:48:28.523Z,49.57
2023-04-03T16:50:55.630Z,49.51
2023-04-03T16:53:22.700Z,49.91
2023-04-03T16:55:49.397Z,49.92
2023-04-03T16:58:16.391Z,49.41
2023-04-03T17:00:43.947Z,49.52
2023-04-03T17:03:11.021Z,49.56
2023-04-03T17:05:39.397Z,49.77
2023-04-03T17:08:06.338Z,50.03
2023-04-03T17:10:34.607Z,48.82
2023-04-03T17:13:01.483Z,49.65
2023-04-03T17:15:28.318Z,49.78
2023-04-03T17:17:55.554Z,49.99
2023-04-03T17:20:22.716Z,49.75
2023-04-03T17:22:50.888Z,50.21
2023-04-03T17:25:17.916Z,50.04
2023-04-03T17:27:44.675Z,50.17
2023-04-03T17:30:12.169Z,50.36
2023-04-03T17:32:39.105Z,50.62
2023-04-03T17:35:08.007Z,50.48
2023-04-03T17:37:36.226Z,50.64
2023-04-03T17:40:05.110Z,50.67
2023-04-03T17:42:32.791Z,50.77
2023-04-03T17:45:01.186Z,51.15
2023-04-03T17:47:28.030Z,50.95
2023-04-03T17:49:54.941Z,50.89
2023-04-03T17:52:25.900Z,50.99
2023-04-03T17:54:52.598Z,51.21
2023-04-03T17:57:21.452Z,51.10
2023-04-03T17:59:48.382Z,51.54
2023-04-03T18:02:15.768Z,51.40
2023-04-03T18:04:42.443Z,51.67
2023-04-03T18:07:10.046Z,51.92
2023-04-03T18:09:38.091Z,52.03
2023-04-03T18:12:07.379Z,52.04
2023-04-03T18:14:37.419Z,51.79
2023-04-03T18:17:04.708Z,52.11
2023-04-03T18:19:33.940Z,52.41
2023-04-03T18:22:04.360Z,52.47
2023-04-03T18:24:33.472Z,52.39
2023-04-03T18:27:06.309Z,52.87
2023-04-03T18:29:36.638Z,52.56
2023-04-03T18:32:04.509Z,52.99
2023-04-03T18:34:32.160Z,53.20
2023-04-03T18:37:00.180Z,53.23
2023-04-03T18:39:27.223Z,53.29
2023-04-03T18:41:55.260Z,53.09
2023-04-03T18:44:26.400Z,53.24
2023-04-03T18:46:56.859Z,53.50
2023-04-03T18:49:25.670Z,53.51
2023-04-03T18:51:52.433Z,53.41
2023-04-03T18:54:20.706Z,53.72
2023-04-03T18:56:47.502Z,53.90
2023-04-03T18:59:14.753Z,54.01
2023-04-03T19:01:41.572Z,53.91
2023-04-03T19:04:12.094Z,54.24
2023-04-03T19:06:40.348Z,54.41
2023-04-03T19:09:08.185Z,54.40
2023-04-03T19:11:36.621Z,54.48
2023-04-03T19:14:15.802Z,54.58
2023-04-03T19:16:46.004Z,54.83
2023-04-03T19:19:14.331Z,54.67
2023-04-03T19:21:42.050Z,54.78
2023-04-03T19:24:10.810Z,54.98
2023-04-03T19:26:38.096Z,55.02
2023-04-03T19:29:05.009Z,55.17
2023-04-03T19:31:33.865Z,55.21
2023-04-03T19:34:01.182Z,55.39
2023-04-03T19:36:29.312Z,55.57
2023-04-03T19:38:56.145Z,55.40
2023-04-03T19:41:25.300Z,55.75
2023-04-03T19:43:53.632Z,55.98
2023-04-03T19:46:23.005Z,55.80
2023-04-03T19:48:49.823Z,56.27
2023-04-03T19:51:16.874Z,56.00
2023-04-03T19:53:45.051Z,56.04
2023-04-03T19:56:12.182Z,56.32
2023-04-03T19:58:39.452Z,56.41
2023-04-03T20:01:06.244Z,56.26
2023-04-03T20:03:34.358Z,56.42
2023-04-03T20:06:02.738Z,56.60
2023-04-03T20:08:37.099Z,56.60
2023-04-03T20:11:05.895Z,56.59
2023-04-03T20:13:33.221Z,56.86
2023-04-03T20:16:02.499Z,57.04
2023-04-03T20:18:29.439Z,57.02
2023-04-03T20:21:01.679Z,57.09
2023-04-03T20:23:35.141Z,57.14
2023-04-03T20:26:10.119Z,57.16
2023-04-03T20:28:41.758Z,57.18
2023-04-03T20:31:16.201Z,57.37
2023-04-03T20:33:43.830Z,57.35
2023-04-03T20:36:11.175Z,57.62
2023-04-03T20:38:48.591Z,57.75
2023-04-03T20:41:41.806Z,57.71
2023-04-03T20:44:10.551Z,57.83
2023-04-03T20:46:51.281Z,57.92
2023-04-03T20:49:21.519Z,58.19
2023-04-03T20:51:48.868Z,58.06
2023-04-03T20:54:15.669Z,58.12
2023-04-03T20:56:42.727Z,58.24
2023-04-03T20:59:11.699Z,58.05
2023-04-03T21:01:39.849Z,58.03
2023-04-03T21:04:14.251Z,58.25
2023-04-03T21:07:18.634Z,58.43
2023-04-03T21:10:23.608Z,58.43
2023-04-03T21:13:28.100Z,58.48
2023-04-03T21:16:00.234Z,58.52
2023-04-03T21:18:52.112Z,58.77
2023-04-03T21:21:23.415Z,58.72
2023-04-03T21:24:01.409Z,58.90
2023-04-03T21:26:32.833Z,58.83
2023-04-03T21:29:00.699Z,58.76
2023-04-03T21:31:51.245Z,58.79
2023-04-03T21:34:22.382Z,58.96
2023-04-03T21:36:52.652Z,58.95
2023-04-03T21:39:19.514Z,59.04
2023-04-03T21:41:47.181Z,59.15
2023-04-03T21:44:14.043Z,59.06
2023-04-03T21:46:48.204Z,59.03
2023-04-03T21:49:16.846Z,59.24
2023-04-03T21:51:45.324Z,59.21
2023-04-03T21:54:13.765Z,59.44
2023-04-03T21:56:42.095Z,59.44
2023-04-03T21:59:09.316Z,59.58
2023-04-03T22:01:37.772Z,59.34
2023-04-03T22:04:04.879Z,59.56
2023-04-03T22:06:31.753Z,59.51
2023-04-03T22:08:59.914Z,59.45
2023-04-03T22:11:27.253Z,59.63
2023-04-03T22:13:56.529Z,60.02
2023-04-03T22:16:24.054Z,59.95
2023-04-03T22:18:52.970Z,60.11
2023-04-03T22:21:24.465Z,59.75
2023-04-03T22:23:52.636Z,60.20
2023-04-03T22:26:21.827Z,59.97
2023-04-03T22:28:49.269Z,59.90
2023-04-03T22:31:17.386Z,60.05
2023-04-03T22:33:46.344Z,60.27
2023-04-03T22:36:16.049Z,60.19
2023-04-03T22:38:46.870Z,60.25
2023-04-03T22:41:13.894Z,60.52
2023-04-03T22:43:42.960Z,60.25
2023-04-03T22:46:10.264Z,60.17
2023-04-03T22:48:37.509Z,60.46
2023-04-03T22:51:07.752Z,60.41
2023-04-03T22:53:38.784Z,60.53
2023-04-03T22:56:11.052Z,60.61
2023-04-03T22:58:38.168Z,60.77
2023-04-03T23:01:08.133Z,60.83
2023-04-03T23:03:39.050Z,60.76
2023-04-03T23:06:08.291Z,60.92
2023-04-03T23:08:38.039Z,60.66
2023-04-03T23:11:09.908Z,60.65
2023-04-03T23:13:37.208Z,60.77
2023-04-03T23:16:07.096Z,60.88
2023-04-03T23:18:34.424Z,61.17
2023-04-03T23:21:03.929Z,60.75
2023-04-03T23:23:31.411Z,60.72
2023-04-03T23:26:02.041Z,61.07
2023-04-03T23:28:32.756Z,61.03
2023-04-03T23:31:03.422Z,60.88
2023-04-03T23:33:35.484Z,61.09
2023-04-03T23:36:07.477Z,60.92
2023-04-03T23:38:35.100Z,61.12
2023-04-03T23:41:03.092Z,60.98
2023-04-03T23:43:31.233Z,61.23
